createdAt,value
2023-08-10T00:00:31.945Z,14.80
2023-08-10T00:03:00.361Z,14.80
2023-08-10T00:05:28.685Z,14.80
2023-08-10T00:07:56.773Z,14.70
2023-08-10T00:10:25.022Z,14.70
2023-08-10T00:12:53.117Z,14.70
2023-08-10T00:15:22.756Z,14.70
2023-08-10T00:17:51.268Z,14.70
2023-08-10T00:20:19.546Z,14.60
2023-08-10T00:22:47.618Z,14.60
2023-08-10T00:25:15.827Z,14.60
2023-08-10T00:27:43.936Z,14.50
2023-08-10T00:30:12.402Z,14.50
2023-08-10T00:32:42.900Z,14.50
2023-08-10T00:35:11.578Z,14.50
2023-08-10T00:37:39.802Z,14.50
2023-08-10T00:40:10.383Z,14.40
2023-08-10T00:42:38.736Z,14.40
2023-08-10T00:45:07.940Z,14.40
2023-08-10T00:47:36.153Z,14.30
2023-08-10T00:50:06.622Z,14.30
2023-08-10T00:52:35.491Z,14.30
2023-08-10T00:55:03.647Z,14.20
2023-08-10T00:57:32.437Z,14.20
2023-08-10T01:00:01.322Z,14.20
2023-08-10T01:02:30.125Z,14.10
2023-08-10T01:04:58.397Z,14.10
2023-08-10T01:07:36.709Z,14.10
2023-08-10T01:10:12.800Z,14.10
2023-08-10T01:12:47.018Z,14.00
2023-08-10T01:15:19.396Z,14.00
2023-08-10T01:17:53.396Z,14.00
2023-08-10T01:20:23.030Z,14.00
2023-08-10T01:22:57.546Z,14.00
2023-08-10T01:25:27.919Z,13.90
2023-08-10T01:27:56.824Z,13.90
2023-08-10T01:30:25.782Z,13.90
2023-08-10T01:32:54.153Z,13.90
2023-08-10T01:35:22.571Z,13.90
2023-08-10T01:37:50.593Z,13.90
2023-08-10T01:40:18.783Z,13.80
2023-08-10T01:42:48.207Z,13.80
2023-08-10T01:45:16.477Z,13.80
2023-08-10T01:47:54.180Z,13.80
2023-08-10T01:50:23.762Z,13.80
2023-08-10T01:52:56.254Z,13.80
2023-08-10T01:55:24.902Z,13.80
2023-08-10T01:57:54.435Z,13.80
2023-08-10T02:00:22.593Z,13.80
2023-08-10T02:02:50.784Z,13.80
2023-08-10T02:05:18.972Z,13.80
2023-08-10T02:07:50.315Z,13.80
2023-08-10T02:10:19.051Z,13.80
2023-08-10T02:12:47.100Z,13.80
2023-08-10T02:15:16.858Z,13.70
2023-08-10T02:17:46.079Z,13.70
2023-08-10T02:20:14.856Z,13.70
2023-08-10T02:22:48.358Z,13.70
2023-08-10T02:25:16.939Z,13.70
2023-08-10T02:27:45.427Z,13.70
2023-08-10T02:30:14.224Z,13.70
2023-08-10T02:32:43.788Z,13.70
2023-08-10T02:35:12.009Z,13.60
2023-08-10T02:37:40.296Z,13.60
2023-08-10T02:40:11.374Z,13.60
2023-08-10T02:42:40.452Z,13.60
2023-08-10T02:45:09.835Z,13.60
2023-08-10T02:47:38.016Z,13.60
2023-08-10T02:50:08.705Z,13.60
2023-08-10T02:52:38.864Z,13.50
2023-08-10T02:55:08.291Z,13.50
2023-08-10T02:57:36.772Z,13.50
2023-08-10T03:00:07.815Z,13.50
2023-08-10T03:02:36.206Z,13.50
2023-08-10T03:05:10.406Z,13.50
2023-08-10T03:07:38.567Z,13.50
2023-08-10T03:10:10.757Z,13.50
2023-08-10T03:12:40.514Z,13.40
2023-08-10T03:15:12.742Z,13.40
2023-08-10T03:17:42.110Z,13.40
2023-08-10T03:20:17.862Z,13.40
2023-08-10T03:22:47.604Z,13.40
2023-08-10T03:25:16.711Z,13.30
2023-08-10T03:27:45.670Z,13.30
2023-08-10T03:30:16.990Z,13.30
2023-08-10T03:32:45.300Z,13.30
2023-08-10T03:35:16.193Z,13.30
2023-08-10T03:37:44.387Z,13.20
2023-08-10T03:40:13.509Z,13.20
2023-08-10T03:42:42.079Z,13.20
2023-08-10T03:45:12.062Z,13.20
2023-08-10T03:47:40.254Z,13.20
2023-08-10T03:50:09.497Z,13.10
2023-08-10T03:52:38.898Z,13.10
2023-08-10T03:55:08.008Z,13.10
2023-08-10T03:57:36.061Z,13.10
2023-08-10T04:00:05.261Z,13.10
2023-08-10T04:02:45.211Z,13.10
2023-08-10T04:05:19.129Z,13.10
2023-08-10T04:07:49.004Z,13.10
2023-08-10T04:10:17.240Z,13.10
2023-08-10T04:12:45.871Z,13.10
2023-08-10T04:15:14.121Z,13.00
2023-08-10T04:17:42.720Z,13.00
2023-08-10T04:20:11.721Z,13.10
2023-08-10T04:22:39.989Z,13.00
2023-08-10T04:25:09.918Z,13.00
2023-08-10T04:27:38.412Z,13.00
2023-08-10T04:30:09.944Z,13.00
2023-08-10T04:32:38.388Z,13.00
2023-08-10T04:35:07.260Z,13.00
2023-08-10T04:37:36.060Z,13.00
2023-08-10T04:40:08.911Z,13.00
2023-08-10T04:42:41.176Z,13.00
2023-08-10T04:45:11.526Z,13.00
2023-08-10T04:47:40.165Z,12.90
2023-08-10T04:50:09.205Z,12.90
2023-08-10T04:52:37.720Z,12.90
2023-08-10T04:55:06.443Z,13.00
2023-08-10T04:57:34.582Z,12.90
2023-08-10T05:00:10.202Z,12.90
2023-08-10T05:02:39.438Z,13.00
2023-08-10T05:05:09.151Z,13.00
2023-08-10T05:07:38.395Z,13.00
2023-08-10T05:10:09.244Z,13.00
2023-08-10T05:12:39.439Z,13.00
2023-08-10T05:15:11.285Z,13.00
2023-08-10T05:17:40.329Z,13.00
2023-08-10T05:20:12.008Z,13.00
2023-08-10T05:22:41.753Z,13.00
2023-08-10T05:25:10.639Z,13.00
2023-08-10T05:27:39.534Z,13.00
2023-08-10T05:30:13.251Z,13.00
2023-08-10T05:32:45.225Z,13.10
2023-08-10T05:35:14.056Z,13.10
2023-08-10T05:37:42.180Z,13.10
2023-08-10T05:40:13.014Z,13.10
2023-08-10T05:42:43.016Z,13.20
2023-08-10T05:45:16.855Z,13.20
2023-08-10T05:47:46.650Z,13.20
2023-08-10T05:50:15.144Z,13.30
2023-08-10T05:52:43.921Z,13.30
2023-08-10T05:55:12.401Z,13.40
2023-08-10T05:57:40.754Z,13.40
2023-08-10T06:00:10.985Z,13.50
2023-08-10T06:02:44.135Z,13.60
2023-08-10T06:05:13.907Z,13.70
2023-08-10T06:07:42.257Z,13.90
2023-08-10T06:10:10.786Z,14.10
2023-08-10T06:12:39.010Z,14.30
2023-08-10T06:15:07.869Z,14.50
2023-08-10T06:17:35.998Z,14.70
2023-08-10T06:20:10.857Z,14.90
2023-08-10T06:22:40.373Z,15.10
2023-08-10T06:25:09.593Z,15.30
2023-08-10T06:27:38.517Z,15.50
2023-08-10T06:30:08.098Z,15.70
2023-08-10T06:32:36.738Z,15.90
2023-08-10T06:35:06.967Z,16.10
2023-08-10T06:37:35.049Z,16.30
2023-08-10T06:40:08.147Z,16.50
2023-08-10T06:42:36.428Z,16.70
2023-08-10T06:45:11.636Z,16.90
2023-08-10T06:47:39.995Z,17.00
2023-08-10T06:50:10.199Z,17.20
2023-08-10T06:52:38.407Z,17.30
2023-08-10T06:55:07.507Z,17.40
2023-08-10T06:57:37.249Z,17.60
2023-08-10T07:02:39.448Z,17.80
2023-08-10T07:05:11.425Z,17.90
2023-08-10T07:07:39.572Z,18.10
2023-08-10T07:10:10.304Z,18.20
2023-08-10T07:12:38.398Z,18.30
2023-08-10T07:15:09.534Z,18.30
2023-08-10T07:17:38.162Z,18.40
2023-08-10T07:20:07.485Z,18.50
2023-08-10T07:22:40.475Z,18.50
2023-08-10T07:25:09.452Z,18.60
2023-08-10T07:27:38.007Z,18.60
2023-08-10T07:30:07.337Z,18.60
2023-08-10T07:32:35.421Z,18.60
2023-08-10T07:35:03.921Z,18.70
2023-08-10T07:37:32.142Z,18.70
2023-08-10T07:40:01.656Z,18.80
2023-08-10T07:42:29.724Z,18.80
2023-08-10T07:44:57.812Z,18.90
2023-08-10T07:47:25.966Z,18.90
2023-08-10T07:49:54.373Z,18.90
2023-08-10T07:52:22.437Z,18.90
2023-08-10T07:54:50.483Z,18.90
2023-08-10T07:57:19.866Z,19.00
2023-08-10T07:59:48.361Z,19.00
2023-08-10T08:02:16.496Z,19.00
2023-08-10T08:04:44.621Z,19.00
2023-08-10T08:07:12.922Z,19.00
2023-08-10T08:09:41.220Z,18.90
2023-08-10T08:12:09.253Z,18.80
2023-08-10T08:14:38.718Z,18.80
2023-08-10T08:17:06.977Z,18.80
2023-08-10T08:19:37.377Z,18.80
2023-08-10T08:22:05.879Z,18.80
2023-08-10T08:24:34.250Z,18.90
2023-08-10T08:27:02.389Z,19.00
2023-08-10T08:29:30.553Z,19.10
2023-08-10T08:32:00.335Z,19.10
2023-08-10T08:34:28.473Z,19.10
2023-08-10T08:36:56.516Z,19.10
2023-08-10T08:39:24.598Z,19.10
2023-08-10T08:41:53.035Z,19.10
2023-08-10T08:44:21.483Z,19.10
2023-08-10T08:46:50.765Z,19.10
2023-08-10T08:49:20.712Z,19.00
2023-08-10T08:51:49.666Z,19.00
2023-08-10T08:54:19.383Z,19.00
2023-08-10T08:56:47.446Z,19.10
2023-08-10T08:59:15.572Z,19.10
2023-08-10T09:01:43.919Z,19.10
2023-08-10T09:04:12.279Z,19.20
2023-08-10T09:06:41.926Z,19.30
2023-08-10T09:09:10.064Z,19.40
2023-08-10T09:11:38.078Z,19.40
2023-08-10T09:14:10.117Z,19.50
2023-08-10T09:16:40.116Z,19.50
2023-08-10T09:19:13.284Z,19.50
2023-08-10T09:21:42.824Z,19.40
2023-08-10T09:24:12.040Z,19.40
2023-08-10T09:26:42.166Z,19.30
2023-08-10T09:29:10.440Z,19.30
2023-08-10T09:31:44.131Z,19.30
2023-08-10T09:34:14.857Z,19.40
2023-08-10T09:36:54.776Z,19.40
2023-08-10T09:39:22.840Z,19.40
2023-08-10T09:41:56.329Z,19.50
2023-08-10T09:44:24.471Z,19.50
2023-08-10T09:46:59.214Z,19.40
2023-08-10T09:49:27.355Z,19.40
2023-08-10T09:52:00.051Z,19.40
2023-08-10T09:54:28.990Z,19.50
2023-08-10T09:56:58.160Z,19.60
2023-08-10T09:59:26.665Z,19.60
2023-08-10T10:01:55.182Z,19.70
2023-08-10T10:04:24.727Z,19.70
2023-08-10T10:06:54.599Z,19.80
2023-08-10T10:09:25.859Z,19.90
2023-08-10T10:11:55.598Z,20.00
2023-08-10T10:14:23.743Z,20.10
2023-08-10T10:16:53.549Z,20.20
2023-08-10T10:19:21.983Z,20.30
2023-08-10T10:21:50.937Z,20.30
2023-08-10T10:24:20.598Z,20.40
2023-08-10T10:27:01.535Z,20.50
2023-08-10T10:29:41.345Z,20.50
2023-08-10T10:32:15.178Z,20.60
2023-08-10T10:34:44.318Z,20.60
2023-08-10T10:37:15.826Z,20.70
2023-08-10T10:39:45.852Z,20.70
2023-08-10T10:42:19.484Z,20.70
2023-08-10T10:45:01.649Z,20.80
2023-08-10T10:47:37.878Z,20.80
2023-08-10T10:50:17.114Z,20.90
2023-08-10T10:52:55.299Z,21.00
2023-08-10T10:55:24.517Z,21.00
2023-08-10T10:57:54.553Z,21.00
2023-08-10T11:00:25.236Z,21.10
2023-08-10T11:02:54.025Z,21.10
2023-08-10T11:05:22.479Z,21.10
2023-08-10T11:07:51.962Z,21.10
2023-08-10T11:10:22.913Z,21.10
2023-08-10T11:12:55.296Z,21.10
2023-08-10T11:15:24.112Z,21.00
2023-08-10T11:17:55.741Z,21.00
2023-08-10T11:20:24.356Z,21.00
2023-08-10T11:22:53.808Z,21.00
2023-08-10T11:25:24.135Z,21.10
2023-08-10T11:27:57.672Z,21.10
2023-08-10T11:30:26.653Z,21.20
2023-08-10T11:32:56.327Z,21.20
2023-08-10T11:35:26.340Z,21.30
2023-08-10T11:37:55.261Z,21.30
2023-08-10T11:40:24.865Z,21.30
2023-08-10T11:43:05.844Z,21.40
2023-08-10T11:45:34.393Z,21.40
2023-08-10T11:48:04.533Z,21.30
2023-08-10T11:50:33.566Z,21.30
2023-08-10T11:53:11.937Z,21.30
2023-08-10T11:55:44.526Z,21.30
2023-08-10T11:58:16.807Z,21.40
2023-08-10T12:00:50.633Z,21.40
2023-08-10T12:03:24.465Z,21.40
2023-08-10T12:05:56.065Z,21.40
2023-08-10T12:08:27.403Z,21.40
2023-08-10T12:11:02.430Z,21.40
2023-08-10T12:13:32.764Z,21.50
2023-08-10T12:16:04.623Z,21.50
2023-08-10T12:18:32.938Z,21.60
2023-08-10T12:21:01.171Z,21.60
2023-08-10T12:23:29.320Z,21.70
2023-08-10T12:25:57.326Z,21.80
2023-08-10T12:28:26.541Z,21.80
2023-08-10T12:30:56.028Z,21.80
2023-08-10T12:33:24.801Z,21.90
2023-08-10T12:35:53.358Z,21.90
2023-08-10T12:38:21.588Z,21.90
2023-08-10T12:40:49.722Z,22.00
2023-08-10T12:43:17.811Z,22.10
2023-08-10T12:45:46.908Z,22.10
2023-08-10T12:48:16.388Z,22.20
2023-08-10T12:50:44.507Z,22.30
2023-08-10T12:53:12.712Z,22.20
2023-08-10T12:55:40.832Z,22.20
2023-08-10T12:58:12.484Z,22.20
2023-08-10T13:00:40.594Z,22.20
2023-08-10T13:03:09.273Z,22.20
2023-08-10T13:05:38.890Z,22.20
2023-08-10T13:08:07.491Z,22.20
2023-08-10T13:10:35.691Z,22.20
2023-08-10T13:13:04.103Z,22.20
2023-08-10T13:15:32.274Z,22.30
2023-08-10T13:18:00.355Z,22.30
2023-08-10T13:20:28.637Z,22.40
2023-08-10T13:22:58.162Z,22.40
2023-08-10T13:25:26.234Z,22.50
2023-08-10T13:27:54.279Z,22.50
2023-08-10T13:30:22.359Z,22.50
2023-08-10T13:32:50.477Z,22.60
2023-08-10T13:35:18.797Z,22.60
2023-08-10T13:37:46.859Z,22.60
2023-08-10T13:40:16.318Z,22.70
2023-08-10T13:42:44.567Z,22.70
2023-08-10T13:45:12.743Z,22.70
2023-08-10T13:47:40.891Z,22.80
2023-08-10T13:50:10.486Z,22.80
2023-08-10T13:52:38.510Z,22.90
2023-08-10T13:55:08.182Z,22.90
2023-08-10T13:57:37.634Z,22.90
2023-08-10T14:00:09.064Z,22.90
2023-08-10T14:02:37.734Z,22.90
2023-08-10T14:05:07.131Z,23.00
2023-08-10T14:07:35.262Z,23.00
2023-08-10T14:10:03.302Z,22.90
2023-08-10T14:12:31.300Z,22.90
2023-08-10T14:15:00.804Z,22.90
2023-08-10T14:17:28.973Z,22.90
2023-08-10T14:19:57.081Z,22.90
2023-08-10T14:22:25.136Z,22.80
2023-08-10T14:24:53.454Z,22.80
2023-08-10T14:27:24.364Z,22.80
2023-08-10T14:29:52.667Z,22.80
2023-08-10T14:32:22.545Z,22.80
2023-08-10T14:34:51.240Z,22.70
2023-08-10T14:37:19.313Z,22.60
2023-08-10T14:39:47.348Z,22.60
2023-08-10T14:42:15.462Z,22.70
2023-08-10T14:44:43.526Z,22.70
2023-08-10T14:47:11.808Z,22.70
2023-08-10T14:49:41.491Z,22.80
2023-08-10T14:52:09.581Z,22.90
2023-08-10T14:54:37.621Z,22.90
2023-08-10T14:57:05.848Z,23.00
2023-08-10T14:59:33.907Z,23.00
2023-08-10T15:02:02.102Z,23.00
2023-08-10T15:04:30.262Z,23.00
2023-08-10T15:06:59.704Z,23.00
2023-08-10T15:09:27.767Z,22.90
2023-08-10T15:11:56.023Z,22.90
2023-08-10T15:14:24.103Z,23.00
2023-08-10T15:16:52.202Z,23.00
2023-08-10T15:19:20.247Z,23.00
2023-08-10T15:21:48.262Z,23.00
2023-08-10T15:24:17.686Z,22.90
2023-08-10T15:26:45.812Z,22.90
2023-08-10T15:29:13.855Z,22.90
2023-08-10T15:31:42.077Z,22.90
2023-08-10T15:34:10.190Z,23.00
2023-08-10T15:36:38.301Z,23.10
2023-08-10T15:39:06.610Z,23.20
2023-08-10T15:41:36.027Z,23.20
2023-08-10T15:44:04.150Z,23.30
2023-08-10T15:46:32.238Z,23.30
2023-08-10T15:49:00.305Z,23.30
2023-08-10T15:51:28.459Z,23.30
2023-08-10T15:53:56.774Z,23.30
2023-08-10T15:56:25.036Z,23.30
2023-08-10T15:58:55.523Z,23.30
2023-08-10T16:01:25.442Z,23.30
2023-08-10T16:03:53.717Z,23.20
2023-08-10T16:06:21.836Z,23.20
2023-08-10T16:08:49.874Z,23.10
2023-08-10T16:11:19.044Z,23.10
2023-08-10T16:13:47.125Z,23.10
2023-08-10T16:16:16.661Z,23.10
2023-08-10T16:18:44.820Z,23.00
2023-08-10T16:21:13.335Z,23.00
2023-08-10T16:23:41.647Z,23.00
2023-08-10T16:26:09.765Z,23.00
2023-08-10T16:28:38.008Z,22.90
2023-08-10T16:31:07.615Z,22.90
2023-08-10T16:33:37.143Z,22.80
2023-08-10T16:36:05.843Z,22.70
2023-08-10T16:38:34.243Z,22.70
2023-08-10T16:41:02.416Z,22.60
2023-08-10T16:43:30.444Z,22.50
2023-08-10T16:45:58.532Z,22.40
2023-08-10T16:48:26.608Z,22.30
2023-08-10T16:50:56.193Z,22.30
2023-08-10T16:53:24.982Z,22.20
2023-08-10T16:55:56.491Z,22.20
2023-08-10T16:58:24.934Z,22.10
2023-08-10T17:00:53.029Z,22.10
2023-08-10T17:03:21.254Z,22.10
2023-08-10T17:05:49.456Z,22.10
2023-08-10T17:08:20.201Z,22.00
2023-08-10T17:10:48.258Z,22.00
2023-08-10T17:13:16.343Z,22.00
2023-08-10T17:15:44.513Z,22.00
2023-08-10T17:18:12.621Z,21.90
2023-08-10T17:20:40.759Z,21.90
2023-08-10T17:23:08.985Z,21.90
2023-08-10T17:25:38.407Z,21.80
2023-08-10T17:28:08.670Z,21.70
2023-08-10T17:30:36.945Z,21.70
2023-08-10T17:33:05.383Z,21.70
2023-08-10T17:35:33.550Z,21.60
2023-08-10T17:38:01.651Z,21.60
2023-08-10T17:40:29.689Z,21.50
2023-08-10T17:42:59.166Z,21.50
2023-08-10T17:45:27.268Z,21.50
2023-08-10T17:47:55.362Z,21.40
2023-08-10T17:50:23.501Z,21.40
2023-08-10T17:52:51.783Z,21.30
2023-08-10T17:55:20.400Z,21.30
2023-08-10T17:57:50.249Z,21.20
2023-08-10T18:00:20.945Z,21.20
2023-08-10T18:02:53.842Z,21.10
2023-08-10T18:05:21.943Z,21.10
2023-08-10T18:07:50.128Z,21.00
2023-08-10T18:10:18.361Z,21.00
2023-08-10T18:12:46.416Z,21.00
2023-08-10T18:15:14.510Z,21.00
2023-08-10T18:17:43.932Z,20.90
2023-08-10T18:20:12.917Z,20.90
2023-08-10T18:22:40.968Z,20.90
2023-08-10T18:25:09.629Z,20.80
2023-08-10T18:27:37.878Z,20.80
2023-08-10T18:30:06.644Z,20.80
2023-08-10T18:32:34.853Z,20.80
2023-08-10T18:35:04.547Z,20.80
2023-08-10T18:37:32.624Z,20.70
2023-08-10T18:40:00.686Z,20.70
2023-08-10T18:42:28.758Z,20.70
2023-08-10T18:44:56.856Z,20.70
2023-08-10T18:47:25.070Z,20.60
2023-08-10T18:49:53.676Z,20.60
2023-08-10T18:52:23.208Z,20.60
2023-08-10T18:54:51.313Z,20.50
2023-08-10T18:57:19.356Z,20.50
2023-08-10T18:59:47.495Z,20.50
2023-08-10T19:02:15.766Z,20.40
2023-08-10T19:04:43.964Z,20.40
2023-08-10T19:07:13.655Z,20.40
2023-08-10T19:09:43.175Z,20.40
2023-08-10T19:12:11.387Z,20.40
2023-08-10T19:14:40.695Z,20.30
2023-08-10T19:17:09.187Z,20.30
2023-08-10T19:19:37.314Z,20.30
2023-08-10T19:22:05.792Z,20.20
2023-08-10T19:24:34.108Z,20.20
2023-08-10T19:27:03.572Z,20.20
2023-08-10T19:29:31.672Z,20.20
2023-08-10T19:31:59.773Z,20.20
2023-08-10T19:34:27.833Z,20.10
2023-08-10T19:36:56.321Z,20.10
2023-08-10T19:39:24.592Z,20.10
2023-08-10T19:41:52.962Z,20.10
2023-08-10T19:44:22.362Z,20.10
2023-08-10T19:46:50.408Z,20.10
2023-08-10T19:49:18.812Z,20.10
2023-08-10T19:51:47.287Z,20.10
2023-08-10T19:54:15.332Z,20.10
2023-08-10T19:56:43.373Z,20.00
2023-08-10T19:59:11.584Z,20.00
2023-08-10T20:01:41.105Z,20.00
2023-08-10T20:04:09.466Z,20.00
2023-08-10T20:06:37.586Z,20.00
2023-08-10T20:09:05.917Z,20.00
2023-08-10T20:11:33.997Z,19.90
2023-08-10T20:14:02.049Z,19.90
2023-08-10T20:16:30.172Z,19.90
2023-08-10T20:18:59.652Z,19.90
2023-08-10T20:21:27.753Z,19.90
2023-08-10T20:23:55.843Z,19.90
2023-08-10T20:26:25.459Z,19.80
2023-08-10T20:28:53.565Z,19.80
2023-08-10T20:31:23.109Z,19.80
2023-08-10T20:33:52.307Z,19.80
2023-08-10T20:36:21.948Z,19.80
2023-08-10T20:38:50.021Z,19.70
2023-08-10T20:41:18.606Z,19.80
2023-08-10T20:43:46.732Z,19.70
2023-08-10T20:46:22.665Z,19.70
2023-08-10T20:48:53.309Z,19.70
2023-08-10T20:51:23.123Z,19.70
2023-08-10T20:53:53.145Z,19.70
2023-08-10T20:56:22.032Z,19.70
2023-08-10T20:58:52.263Z,19.60
2023-08-10T21:01:21.240Z,19.60
2023-08-10T21:03:52.119Z,19.60
2023-08-10T21:06:23.221Z,19.60
2023-08-10T21:08:51.427Z,19.50
2023-08-10T21:11:19.505Z,19.50
2023-08-10T21:13:49.742Z,19.50
2023-08-10T21:16:18.253Z,19.60
2023-08-10T21:18:47.626Z,19.50
2023-08-10T21:21:15.762Z,19.50
2023-08-10T21:23:45.204Z,19.50
2023-08-10T21:26:13.280Z,19.50
2023-08-10T21:28:41.338Z,19.50
2023-08-10T21:31:09.441Z,19.50
2023-08-10T21:33:37.614Z,19.50
2023-08-10T21:36:06.238Z,19.50
2023-08-10T21:38:34.413Z,19.50
2023-08-10T21:41:03.881Z,19.40
2023-08-10T21:43:32.226Z,19.40
2023-08-10T21:46:00.370Z,19.50
2023-08-10T21:48:28.682Z,19.40
2023-08-10T21:50:56.787Z,19.50
2023-08-10T21:53:24.914Z,19.50
2023-08-10T21:55:53.042Z,19.40
2023-08-10T21:58:22.635Z,19.40
2023-08-10T22:00:50.796Z,19.40
2023-08-10T22:03:18.898Z,19.40
2023-08-10T22:05:48.572Z,19.40
2023-08-10T22:08:17.263Z,19.40
2023-08-10T22:10:45.456Z,19.40
2023-08-10T22:13:13.602Z,19.30
2023-08-10T22:15:43.085Z,19.30
2023-08-10T22:18:12.117Z,19.30
2023-08-10T22:20:40.929Z,19.30
2023-08-10T22:23:09.200Z,19.30
2023-08-10T22:25:37.540Z,19.30
2023-08-10T22:28:06.207Z,19.30
2023-08-10T22:30:35.569Z,19.30
2023-08-10T22:33:05.829Z,19.20
2023-08-10T22:35:33.998Z,19.30
2023-08-10T22:38:02.429Z,19.20
2023-08-10T22:40:31.059Z,19.20
2023-08-10T22:42:59.868Z,19.30
2023-08-10T22:45:27.948Z,19.20
2023-08-10T22:47:56.222Z,19.20
2023-08-10T22:50:26.824Z,19.20
2023-08-10T22:52:55.012Z,19.20
2023-08-10T22:55:23.112Z,19.20
2023-08-10T22:57:51.244Z,19.10
2023-08-10T23:00:19.678Z,19.10
2023-08-10T23:02:47.855Z,19.10
2023-08-10T23:05:16.070Z,19.10
2023-08-10T23:07:45.563Z,19.10
2023-08-10T23:10:13.637Z,19.10
2023-08-10T23:12:41.952Z,19.10
2023-08-10T23:15:11.115Z,19.10
2023-08-10T23:17:39.244Z,19.10
2023-08-10T23:20:12.803Z,19.10
2023-08-10T23:22:42.029Z,19.00
2023-08-10T23:25:14.104Z,19.00
2023-08-10T23:27:43.766Z,19.00
2023-08-10T23:30:13.345Z,19.10
2023-08-10T23:32:41.612Z,19.00
2023-08-10T23:35:11.353Z,19.00
2023-08-10T23:37:40.062Z,19.00
2023-08-10T23:40:11.472Z,19.00
2023-08-10T23:42:43.115Z,19.00
2023-08-10T23:45:13.423Z,19.00
2023-08-10T23:47:41.691Z,19.00
2023-08-10T23:50:10.931Z,18.90
2023-08-10T23:52:44.021Z,18.90
2023-08-10T23:55:12.307Z,18.90
2023-08-10T23:57:42.035Z,18.90
